sensor_id;sensor_type;location;lat;lon;timestamp;temperature;humidity
49777;DHT22;35673;51.482;7.436;2022-09-13T00:00:18;20.00;73.50
49777;DHT22;35673;51.482;7.436;2022-09-13T00:02:44;20.00;73.60
49777;DHT22;35673;51.482;7.436;2022-09-13T00:05:10;19.90;73.30
49777;DHT22;35673;51.482;7.436;2022-09-13T00:07:35;19.90;73.40
49777;DHT22;35673;51.482;7.436;2022-09-13T00:10:01;19.90;73.50
49777;DHT22;35673;51.482;7.436;2022-09-13T00:12:27;19.90;73.70
49777;DHT22;35673;51.482;7.436;2022-09-13T00:14:52;19.90;73.40
49777;DHT22;35673;51.482;7.436;2022-09-13T00:17:18;19.80;73.70
49777;DHT22;35673;51.482;7.436;2022-09-13T00:19:44;19.80;73.90
49777;DHT22;35673;51.482;7.436;2022-09-13T00:22:09;19.80;73.90
49777;DHT22;35673;51.482;7.436;2022-09-13T00:24:35;19.80;74.10
49777;DHT22;35673;51.482;7.436;2022-09-13T00:27:01;19.80;74.00
49777;DHT22;35673;51.482;7.436;2022-09-13T00:29:27;19.90;73.60
49777;DHT22;35673;51.482;7.436;2022-09-13T00:31:53;19.90;73.40
49777;DHT22;35673;51.482;7.436;2022-09-13T00:34:18;19.90;73.20
49777;DHT22;35673;51.482;7.436;2022-09-13T00:36:44;19.90;73.70
49777;DHT22;35673;51.482;7.436;2022-09-13T00:39:11;19.90;73.90
49777;DHT22;35673;51.482;7.436;2022-09-13T00:41:37;19.90;74.00
49777;DHT22;35673;51.482;7.436;2022-09-13T00:44:03;19.90;73.80
49777;DHT22;35673;51.482;7.436;2022-09-13T00:46:46;20.00;73.80
49777;DHT22;35673;51.482;7.436;2022-09-13T00:51:44;19.90;73.60
49777;DHT22;35673;51.482;7.436;2022-09-13T00:54:14;20.00;73.80
49777;DHT22;35673;51.482;7.436;2022-09-13T00:56:46;20.00;73.90
49777;DHT22;35673;51.482;7.436;2022-09-13T00:59:22;20.00;73.90
49777;DHT22;35673;51.482;7.436;2022-09-13T01:01:53;20.00;73.90
49777;DHT22;35673;51.482;7.436;2022-09-13T01:04:23;20.00;74.00
49777;DHT22;35673;51.482;7.436;2022-09-13T01:06:51;20.00;74.00
49777;DHT22;35673;51.482;7.436;2022-09-13T01:09:18;20.00;73.70
49777;DHT22;35673;51.482;7.436;2022-09-13T01:11:45;20.00;73.80
49777;DHT22;35673;51.482;7.436;2022-09-13T01:14:17;20.00;73.90
49777;DHT22;35673;51.482;7.436;2022-09-13T01:16:43;20.00;73.80
49777;DHT22;35673;51.482;7.436;2022-09-13T01:19:09;19.90;73.90
49777;DHT22;35673;51.482;7.436;2022-09-13T01:36:12;19.80;74.70
49777;DHT22;35673;51.482;7.436;2022-09-13T01:38:44;19.70;74.80
49777;DHT22;35673;51.482;7.436;2022-09-13T01:41:28;19.70;75.00
49777;DHT22;35673;51.482;7.436;2022-09-13T01:44:00;19.70;74.60
49777;DHT22;35673;51.482;7.436;2022-09-13T01:46:49;19.70;74.90
49777;DHT22;35673;51.482;7.436;2022-09-13T01:55:17;19.70;75.20
49777;DHT22;35673;51.482;7.436;2022-09-13T01:58:05;19.70;75.10
49777;DHT22;35673;51.482;7.436;2022-09-13T02:00:40;19.70;75.10
49777;DHT22;35673;51.482;7.436;2022-09-13T02:03:15;19.70;74.80
49777;DHT22;35673;51.482;7.436;2022-09-13T02:05:56;19.80;75.00
49777;DHT22;35673;51.482;7.436;2022-09-13T02:08:44;19.80;75.10
49777;DHT22;35673;51.482;7.436;2022-09-13T02:11:12;19.80;74.70
49777;DHT22;35673;51.482;7.436;2022-09-13T02:14:09;19.80;74.70
49777;DHT22;35673;51.482;7.436;2022-09-13T02:16:40;19.80;74.70
49777;DHT22;35673;51.482;7.436;2022-09-13T02:19:19;19.80;74.70
49777;DHT22;35673;51.482;7.436;2022-09-13T02:21:51;19.80;74.30
49777;DHT22;35673;51.482;7.436;2022-09-13T02:24:22;19.80;74.60
49777;DHT22;35673;51.482;7.436;2022-09-13T02:26:51;19.80;74.50
49777;DHT22;35673;51.482;7.436;2022-09-13T02:29:20;19.80;74.60
49777;DHT22;35673;51.482;7.436;2022-09-13T02:32:01;19.80;75.30
49777;DHT22;35673;51.482;7.436;2022-09-13T02:34:39;19.80;75.10
49777;DHT22;35673;51.482;7.436;2022-09-13T02:37:07;19.80;75.30
49777;DHT22;35673;51.482;7.436;2022-09-13T02:39:37;19.70;75.30
49777;DHT22;35673;51.482;7.436;2022-09-13T02:42:18;19.70;75.10
49777;DHT22;35673;51.482;7.436;2022-09-13T02:44:55;19.80;75.20
49777;DHT22;35673;51.482;7.436;2022-09-13T02:47:52;19.80;75.00
49777;DHT22;35673;51.482;7.436;2022-09-13T02:50:39;19.80;74.90
49777;DHT22;35673;51.482;7.436;2022-09-13T03:04:27;19.80;75.20
49777;DHT22;35673;51.482;7.436;2022-09-13T03:06:53;19.80;75.30
49777;DHT22;35673;51.482;7.436;2022-09-13T03:09:19;19.80;75.20
49777;DHT22;35673;51.482;7.436;2022-09-13T03:20:02;19.80;75.40
49777;DHT22;35673;51.482;7.436;2022-09-13T03:23:12;19.80;75.40
49777;DHT22;35673;51.482;7.436;2022-09-13T03:26:11;19.80;75.40
49777;DHT22;35673;51.482;7.436;2022-09-13T03:28:52;19.80;75.50
49777;DHT22;35673;51.482;7.436;2022-09-13T03:39:46;19.80;77.00
49777;DHT22;35673;51.482;7.436;2022-09-13T03:42:27;19.80;77.10
49777;DHT22;35673;51.482;7.436;2022-09-13T03:44:57;19.80;76.60
49777;DHT22;35673;51.482;7.436;2022-09-13T03:47:25;19.70;77.20
49777;DHT22;35673;51.482;7.436;2022-09-13T03:49:53;19.70;76.80
49777;DHT22;35673;51.482;7.436;2022-09-13T03:52:20;19.70;76.50
49777;DHT22;35673;51.482;7.436;2022-09-13T03:54:46;19.70;76.60
49777;DHT22;35673;51.482;7.436;2022-09-13T03:57:20;19.70;76.30
49777;DHT22;35673;51.482;7.436;2022-09-13T03:59:48;19.70;76.30
49777;DHT22;35673;51.482;7.436;2022-09-13T04:02:15;19.70;76.80
49777;DHT22;35673;51.482;7.436;2022-09-13T04:04:42;19.70;76.30
49777;DHT22;35673;51.482;7.436;2022-09-13T04:07:09;19.70;76.80
49777;DHT22;35673;51.482;7.436;2022-09-13T04:09:35;19.70;77.80
49777;DHT22;35673;51.482;7.436;2022-09-13T04:12:01;19.70;77.60
49777;DHT22;35673;51.482;7.436;2022-09-13T04:14:27;19.70;77.40
49777;DHT22;35673;51.482;7.436;2022-09-13T04:16:56;19.60;77.50
49777;DHT22;35673;51.482;7.436;2022-09-13T04:19:23;19.70;78.00
49777;DHT22;35673;51.482;7.436;2022-09-13T04:21:51;19.70;78.40
49777;DHT22;35673;51.482;7.436;2022-09-13T04:24:17;19.70;78.40
49777;DHT22;35673;51.482;7.436;2022-09-13T04:26:47;19.70;78.40
49777;DHT22;35673;51.482;7.436;2022-09-13T04:29:13;19.70;78.40
49777;DHT22;35673;51.482;7.436;2022-09-13T04:31:39;19.70;78.30
49777;DHT22;35673;51.482;7.436;2022-09-13T04:34:05;19.70;78.00
49777;DHT22;35673;51.482;7.436;2022-09-13T04:36:31;19.70;78.00
49777;DHT22;35673;51.482;7.436;2022-09-13T04:38:57;19.70;77.90
49777;DHT22;35673;51.482;7.436;2022-09-13T04:41:24;19.70;78.00
49777;DHT22;35673;51.482;7.436;2022-09-13T04:43:50;19.70;78.00
49777;DHT22;35673;51.482;7.436;2022-09-13T04:46:16;19.60;78.10
49777;DHT22;35673;51.482;7.436;2022-09-13T04:48:42;19.60;78.30
49777;DHT22;35673;51.482;7.436;2022-09-13T04:51:07;19.60;78.30
49777;DHT22;35673;51.482;7.436;2022-09-13T04:53:34;19.60;78.30
49777;DHT22;35673;51.482;7.436;2022-09-13T04:56:01;19.60;79.10
49777;DHT22;35673;51.482;7.436;2022-09-13T04:58:27;19.60;79.40
49777;DHT22;35673;51.482;7.436;2022-09-13T05:00:53;19.60;80.10
49777;DHT22;35673;51.482;7.436;2022-09-13T05:03:21;19.60;79.60
49777;DHT22;35673;51.482;7.436;2022-09-13T05:05:47;19.60;79.20
49777;DHT22;35673;51.482;7.436;2022-09-13T05:08:13;19.50;79.60
49777;DHT22;35673;51.482;7.436;2022-09-13T05:10:39;19.60;79.50
49777;DHT22;35673;51.482;7.436;2022-09-13T05:13:04;19.60;80.10
49777;DHT22;35673;51.482;7.436;2022-09-13T05:15:30;19.60;80.00
49777;DHT22;35673;51.482;7.436;2022-09-13T05:17:55;19.60;80.30
49777;DHT22;35673;51.482;7.436;2022-09-13T05:20:21;19.60;80.20
49777;DHT22;35673;51.482;7.436;2022-09-13T05:22:47;19.60;79.80
49777;DHT22;35673;51.482;7.436;2022-09-13T05:25:12;19.60;79.60
49777;DHT22;35673;51.482;7.436;2022-09-13T05:27:38;19.60;79.80
49777;DHT22;35673;51.482;7.436;2022-09-13T05:30:04;19.60;79.90
49777;DHT22;35673;51.482;7.436;2022-09-13T05:32:31;19.60;80.00
49777;DHT22;35673;51.482;7.436;2022-09-13T05:34:56;19.60;80.00
49777;DHT22;35673;51.482;7.436;2022-09-13T05:37:22;19.60;80.20
49777;DHT22;35673;51.482;7.436;2022-09-13T05:39:47;19.60;80.30
49777;DHT22;35673;51.482;7.436;2022-09-13T05:42:13;19.60;80.30
49777;DHT22;35673;51.482;7.436;2022-09-13T05:44:39;19.50;80.50
49777;DHT22;35673;51.482;7.436;2022-09-13T05:47:04;19.50;80.50
49777;DHT22;35673;51.482;7.436;2022-09-13T05:49:30;19.50;80.70
49777;DHT22;35673;51.482;7.436;2022-09-13T05:51:56;19.50;80.90
49777;DHT22;35673;51.482;7.436;2022-09-13T05:54:21;19.50;80.80
49777;DHT22;35673;51.482;7.436;2022-09-13T05:56:47;19.50;81.10
49777;DHT22;35673;51.482;7.436;2022-09-13T05:59:13;19.50;81.40
49777;DHT22;35673;51.482;7.436;2022-09-13T06:01:41;19.50;81.60
49777;DHT22;35673;51.482;7.436;2022-09-13T06:04:07;19.50;81.70
49777;DHT22;35673;51.482;7.436;2022-09-13T06:06:33;19.50;82.10
49777;DHT22;35673;51.482;7.436;2022-09-13T06:08:59;19.50;82.10
49777;DHT22;35673;51.482;7.436;2022-09-13T06:11:26;19.50;82.40
49777;DHT22;35673;51.482;7.436;2022-09-13T06:13:52;19.50;82.30
49777;DHT22;35673;51.482;7.436;2022-09-13T06:16:17;19.50;82.40
49777;DHT22;35673;51.482;7.436;2022-09-13T06:18:44;19.50;82.50
49777;DHT22;35673;51.482;7.436;2022-09-13T06:21:14;19.60;82.50
49777;DHT22;35673;51.482;7.436;2022-09-13T06:23:43;19.60;82.90
49777;DHT22;35673;51.482;7.436;2022-09-13T06:26:11;19.60;82.70
49777;DHT22;35673;51.482;7.436;2022-09-13T06:28:37;19.60;82.80
49777;DHT22;35673;51.482;7.436;2022-09-13T06:31:13;19.60;82.70
49777;DHT22;35673;51.482;7.436;2022-09-13T06:33:41;19.60;82.90
49777;DHT22;35673;51.482;7.436;2022-09-13T06:36:09;19.70;82.50
49777;DHT22;35673;51.482;7.436;2022-09-13T06:38:35;19.70;82.30
49777;DHT22;35673;51.482;7.436;2022-09-13T06:41:04;19.60;82.50
49777;DHT22;35673;51.482;7.436;2022-09-13T06:43:30;19.60;82.50
49777;DHT22;35673;51.482;7.436;2022-09-13T06:46:03;19.60;82.80
49777;DHT22;35673;51.482;7.436;2022-09-13T06:48:31;19.60;82.80
49777;DHT22;35673;51.482;7.436;2022-09-13T06:50:59;19.60;82.80
49777;DHT22;35673;51.482;7.436;2022-09-13T06:53:25;19.60;83.30
49777;DHT22;35673;51.482;7.436;2022-09-13T06:56:10;19.60;83.30
49777;DHT22;35673;51.482;7.436;2022-09-13T06:58:38;19.60;83.30
49777;DHT22;35673;51.482;7.436;2022-09-13T07:03:39;19.60;84.20
49777;DHT22;35673;51.482;7.436;2022-09-13T07:06:07;19.60;84.10
49777;DHT22;35673;51.482;7.436;2022-09-13T07:08:33;19.60;84.50
49777;DHT22;35673;51.482;7.436;2022-09-13T07:10:59;19.60;84.10
49777;DHT22;35673;51.482;7.436;2022-09-13T07:13:24;19.60;84.00
49777;DHT22;35673;51.482;7.436;2022-09-13T07:15:50;19.70;84.60
49777;DHT22;35673;51.482;7.436;2022-09-13T07:18:16;19.70;84.00
49777;DHT22;35673;51.482;7.436;2022-09-13T07:20:41;19.70;84.00
49777;DHT22;35673;51.482;7.436;2022-09-13T07:23:07;19.80;84.10
49777;DHT22;35673;51.482;7.436;2022-09-13T07:25:33;19.90;84.30
49777;DHT22;35673;51.482;7.436;2022-09-13T07:27:58;19.90;83.50
49777;DHT22;35673;51.482;7.436;2022-09-13T07:30:24;19.90;83.40
49777;DHT22;35673;51.482;7.436;2022-09-13T07:32:51;19.90;83.60
49777;DHT22;35673;51.482;7.436;2022-09-13T07:35:16;19.90;83.40
49777;DHT22;35673;51.482;7.436;2022-09-13T07:37:42;20.00;83.80
49777;DHT22;35673;51.482;7.436;2022-09-13T07:40:10;20.10;83.50
49777;DHT22;35673;51.482;7.436;2022-09-13T07:42:36;20.40;82.30
49777;DHT22;35673;51.482;7.436;2022-09-13T07:45:02;20.50;81.40
49777;DHT22;35673;51.482;7.436;2022-09-13T07:47:31;20.50;81.50
49777;DHT22;35673;51.482;7.436;2022-09-13T07:49:56;20.60;80.90
49777;DHT22;35673;51.482;7.436;2022-09-13T07:52:22;20.60;80.60
49777;DHT22;35673;51.482;7.436;2022-09-13T07:54:48;20.60;80.30
49777;DHT22;35673;51.482;7.436;2022-09-13T07:57:13;20.70;80.80
49777;DHT22;35673;51.482;7.436;2022-09-13T07:59:39;20.80;79.90
49777;DHT22;35673;51.482;7.436;2022-09-13T08:02:05;20.90;79.70
49777;DHT22;35673;51.482;7.436;2022-09-13T08:04:30;20.90;79.80
49777;DHT22;35673;51.482;7.436;2022-09-13T08:06:56;21.00;79.00
49777;DHT22;35673;51.482;7.436;2022-09-13T08:09:21;21.00;78.80
49777;DHT22;35673;51.482;7.436;2022-09-13T08:11:49;21.00;78.70
49777;DHT22;35673;51.482;7.436;2022-09-13T08:14:21;21.00;79.00
49777;DHT22;35673;51.482;7.436;2022-09-13T08:16:47;20.90;78.80
49777;DHT22;35673;51.482;7.436;2022-09-13T08:19:15;21.00;79.00
49777;DHT22;35673;51.482;7.436;2022-09-13T08:21:41;21.00;79.30
49777;DHT22;35673;51.482;7.436;2022-09-13T08:24:15;21.10;78.50
49777;DHT22;35673;51.482;7.436;2022-09-13T08:26:41;21.00;77.80
49777;DHT22;35673;51.482;7.436;2022-09-13T08:29:09;21.00;78.10
49777;DHT22;35673;51.482;7.436;2022-09-13T08:31:35;21.10;77.70
49777;DHT22;35673;51.482;7.436;2022-09-13T08:34:01;21.20;77.00
49777;DHT22;35673;51.482;7.436;2022-09-13T08:36:27;21.30;76.50
49777;DHT22;35673;51.482;7.436;2022-09-13T08:38:55;21.40;76.50
49777;DHT22;35673;51.482;7.436;2022-09-13T08:44:35;21.50;75.50
49777;DHT22;35673;51.482;7.436;2022-09-13T08:50:03;21.60;75.10
49777;DHT22;35673;51.482;7.436;2022-09-13T08:53:05;21.60;74.80
49777;DHT22;35673;51.482;7.436;2022-09-13T09:01:07;22.20;73.80
49777;DHT22;35673;51.482;7.436;2022-09-13T09:03:44;22.30;73.60
49777;DHT22;35673;51.482;7.436;2022-09-13T09:06:16;22.50;73.40
49777;DHT22;35673;51.482;7.436;2022-09-13T09:08:47;22.60;73.00
49777;DHT22;35673;51.482;7.436;2022-09-13T09:14:03;22.70;72.50
49777;DHT22;35673;51.482;7.436;2022-09-13T09:16:35;22.80;71.90
49777;DHT22;35673;51.482;7.436;2022-09-13T09:19:26;22.90;71.90
49777;DHT22;35673;51.482;7.436;2022-09-13T09:21:55;23.10;71.10
49777;DHT22;35673;51.482;7.436;2022-09-13T09:24:24;23.00;71.50
49777;DHT22;35673;51.482;7.436;2022-09-13T09:26:52;23.00;71.50
49777;DHT22;35673;51.482;7.436;2022-09-13T09:29:31;23.20;71.20
49777;DHT22;35673;51.482;7.436;2022-09-13T09:37:34;23.10;71.30
49777;DHT22;35673;51.482;7.436;2022-09-13T09:40:03;23.10;71.00
49777;DHT22;35673;51.482;7.436;2022-09-13T09:42:41;23.00;70.90
49777;DHT22;35673;51.482;7.436;2022-09-13T09:45:30;23.00;71.40
49777;DHT22;35673;51.482;7.436;2022-09-13T09:48:01;23.10;71.60
49777;DHT22;35673;51.482;7.436;2022-09-13T09:50:33;23.30;71.50
49777;DHT22;35673;51.482;7.436;2022-09-13T09:53:17;23.30;70.50
49777;DHT22;35673;51.482;7.436;2022-09-13T09:58:15;23.30;70.90
49777;DHT22;35673;51.482;7.436;2022-09-13T10:03:19;23.30;70.80
49777;DHT22;35673;51.482;7.436;2022-09-13T10:05:45;23.20;71.10
49777;DHT22;35673;51.482;7.436;2022-09-13T10:08:46;23.30;70.60
49777;DHT22;35673;51.482;7.436;2022-09-13T10:11:13;23.20;71.00
49777;DHT22;35673;51.482;7.436;2022-09-13T10:13:57;23.30;71.10
49777;DHT22;35673;51.482;7.436;2022-09-13T10:16:28;23.40;70.80
49777;DHT22;35673;51.482;7.436;2022-09-13T10:19:20;23.30;71.00
49777;DHT22;35673;51.482;7.436;2022-09-13T10:21:59;23.40;70.50
49777;DHT22;35673;51.482;7.436;2022-09-13T10:24:26;23.50;71.20
49777;DHT22;35673;51.482;7.436;2022-09-13T10:26:54;23.60;70.80
49777;DHT22;35673;51.482;7.436;2022-09-13T10:29:20;23.70;70.30
49777;DHT22;35673;51.482;7.436;2022-09-13T10:31:48;23.90;70.00
49777;DHT22;35673;51.482;7.436;2022-09-13T10:34:22;23.90;70.10
49777;DHT22;35673;51.482;7.436;2022-09-13T10:39:28;23.80;69.80
49777;DHT22;35673;51.482;7.436;2022-09-13T10:42:04;23.80;69.50
49777;DHT22;35673;51.482;7.436;2022-09-13T10:47:06;24.00;69.30
49777;DHT22;35673;51.482;7.436;2022-09-13T10:49:36;24.10;68.60
49777;DHT22;35673;51.482;7.436;2022-09-13T10:52:26;24.20;68.80
49777;DHT22;35673;51.482;7.436;2022-09-13T10:54:54;24.30;68.30
49777;DHT22;35673;51.482;7.436;2022-09-13T10:59:59;24.40;68.10
49777;DHT22;35673;51.482;7.436;2022-09-13T11:16:22;24.50;67.80
49777;DHT22;35673;51.482;7.436;2022-09-13T11:19:07;24.50;67.80
49777;DHT22;35673;51.482;7.436;2022-09-13T11:25:00;24.50;68.20
49777;DHT22;35673;51.482;7.436;2022-09-13T11:30:22;24.70;67.50
49777;DHT22;35673;51.482;7.436;2022-09-13T11:40:58;24.80;66.90
49777;DHT22;35673;51.482;7.436;2022-09-13T11:47:00;24.90;67.10
49777;DHT22;35673;51.482;7.436;2022-09-13T11:49:57;25.00;67.60
49777;DHT22;35673;51.482;7.436;2022-09-13T11:55:13;25.10;66.10
49777;DHT22;35673;51.482;7.436;2022-09-13T11:57:48;25.20;66.20
49777;DHT22;35673;51.482;7.436;2022-09-13T12:00:39;25.10;66.20
49777;DHT22;35673;51.482;7.436;2022-09-13T12:03:12;25.00;66.60
49777;DHT22;35673;51.482;7.436;2022-09-13T12:06:02;24.90;66.90
49777;DHT22;35673;51.482;7.436;2022-09-13T12:08:37;25.00;66.80
49777;DHT22;35673;51.482;7.436;2022-09-13T12:11:10;25.10;66.90
49777;DHT22;35673;51.482;7.436;2022-09-13T12:13:47;25.20;67.50
49777;DHT22;35673;51.482;7.436;2022-09-13T12:16:48;25.30;67.00
49777;DHT22;35673;51.482;7.436;2022-09-13T12:19:14;25.30;66.40
49777;DHT22;35673;51.482;7.436;2022-09-13T12:21:41;25.30;67.20
49777;DHT22;35673;51.482;7.436;2022-09-13T12:27:01;25.40;66.50
49777;DHT22;35673;51.482;7.436;2022-09-13T12:29:29;25.60;66.70
49777;DHT22;35673;51.482;7.436;2022-09-13T12:31:59;25.70;66.90
49777;DHT22;35673;51.482;7.436;2022-09-13T12:34:28;25.80;67.10
49777;DHT22;35673;51.482;7.436;2022-09-13T12:37:03;25.80;67.20
49777;DHT22;35673;51.482;7.436;2022-09-13T12:39:48;25.80;67.00
49777;DHT22;35673;51.482;7.436;2022-09-13T13:02:38;25.80;67.50
49777;DHT22;35673;51.482;7.436;2022-09-13T13:05:18;25.90;68.10
49777;DHT22;35673;51.482;7.436;2022-09-13T13:08:00;26.10;68.20
49777;DHT22;35673;51.482;7.436;2022-09-13T13:10:31;26.20;68.20
49777;DHT22;35673;51.482;7.436;2022-09-13T13:13:22;26.40;67.80
49777;DHT22;35673;51.482;7.436;2022-09-13T13:18:42;26.50;67.00
49777;DHT22;35673;51.482;7.436;2022-09-13T13:26:43;27.10;66.50
49777;DHT22;35673;51.482;7.436;2022-09-13T13:34:39;29.30;61.90
49777;DHT22;35673;51.482;7.436;2022-09-13T13:37:26;28.80;62.60
49777;DHT22;35673;51.482;7.436;2022-09-13T13:40:19;29.50;60.70
49777;DHT22;35673;51.482;7.436;2022-09-13T13:42:45;28.60;61.40
49777;DHT22;35673;51.482;7.436;2022-09-13T13:45:24;28.00;63.40
49777;DHT22;35673;51.482;7.436;2022-09-13T13:48:06;27.60;64.20
49777;DHT22;35673;51.482;7.436;2022-09-13T13:50:32;27.20;64.70
49777;DHT22;35673;51.482;7.436;2022-09-13T13:53:18;26.90;65.50
49777;DHT22;35673;51.482;7.436;2022-09-13T13:55:47;26.90;65.50
49777;DHT22;35673;51.482;7.436;2022-09-13T13:58:28;27.10;65.50
49777;DHT22;35673;51.482;7.436;2022-09-13T14:00:55;28.50;64.20
49777;DHT22;35673;51.482;7.436;2022-09-13T14:06:33;32.40;58.30
49777;DHT22;35673;51.482;7.436;2022-09-13T14:09:02;34.00;54.50
49777;DHT22;35673;51.482;7.436;2022-09-13T14:18:20;34.80;53.70
49777;DHT22;35673;51.482;7.436;2022-09-13T14:20:26;35.00;51.90
49777;DHT22;35673;51.482;7.436;2022-09-13T14:23:16;32.80;53.90
49777;DHT22;35673;51.482;7.436;2022-09-13T14:25:45;31.90;55.20
49777;DHT22;35673;51.482;7.436;2022-09-13T14:28:20;33.10;54.50
49777;DHT22;35673;51.482;7.436;2022-09-13T14:30:47;33.70;53.10
49777;DHT22;35673;51.482;7.436;2022-09-13T14:33:31;32.80;53.90
49777;DHT22;35673;51.482;7.436;2022-09-13T14:36:04;31.50;55.50
49777;DHT22;35673;51.482;7.436;2022-09-13T14:38:32;30.20;57.60
49777;DHT22;35673;51.482;7.436;2022-09-13T14:41:13;29.50;59.10
49777;DHT22;35673;51.482;7.436;2022-09-13T14:43:39;29.00;59.80
49777;DHT22;35673;51.482;7.436;2022-09-13T14:46:36;28.70;60.40
49777;DHT22;35673;51.482;7.436;2022-09-13T14:49:07;28.60;61.30
49777;DHT22;35673;51.482;7.436;2022-09-13T14:51:54;28.60;61.70
49777;DHT22;35673;51.482;7.436;2022-09-13T14:54:39;28.30;62.00
49777;DHT22;35673;51.482;7.436;2022-09-13T14:57:16;27.90;62.80
49777;DHT22;35673;51.482;7.436;2022-09-13T14:59:48;27.50;63.70
49777;DHT22;35673;51.482;7.436;2022-09-13T15:02:18;27.30;64.50
49777;DHT22;35673;51.482;7.436;2022-09-13T15:04:49;27.00;64.50
49777;DHT22;35673;51.482;7.436;2022-09-13T15:07:31;26.90;65.10
49777;DHT22;35673;51.482;7.436;2022-09-13T15:12:51;27.00;65.80
49777;DHT22;35673;51.482;7.436;2022-09-13T15:17:58;26.80;66.20
49777;DHT22;35673;51.482;7.436;2022-09-13T15:20:29;26.80;66.80
49777;DHT22;35673;51.482;7.436;2022-09-13T15:23:33;26.90;66.80
49777;DHT22;35673;51.482;7.436;2022-09-13T15:28:28;28.50;64.70
49777;DHT22;35673;51.482;7.436;2022-09-13T15:30:55;28.70;63.90
49777;DHT22;35673;51.482;7.436;2022-09-13T15:33:27;28.60;64.20
49777;DHT22;35673;51.482;7.436;2022-09-13T15:41:34;28.70;63.30
49777;DHT22;35673;51.482;7.436;2022-09-13T15:44:01;28.30;63.60
49777;DHT22;35673;51.482;7.436;2022-09-13T15:46:28;27.90;65.10
49777;DHT22;35673;51.482;7.436;2022-09-13T15:49:16;27.60;65.60
49777;DHT22;35673;51.482;7.436;2022-09-13T15:51:43;27.20;66.20
49777;DHT22;35673;51.482;7.436;2022-09-13T15:54:13;27.00;66.90
49777;DHT22;35673;51.482;7.436;2022-09-13T15:56:42;26.80;67.50
49777;DHT22;35673;51.482;7.436;2022-09-13T15:59:13;26.60;67.90
49777;DHT22;35673;51.482;7.436;2022-09-13T16:01:39;26.50;68.40
49777;DHT22;35673;51.482;7.436;2022-09-13T16:04:05;26.30;68.70
49777;DHT22;35673;51.482;7.436;2022-09-13T16:06:33;26.30;69.10
49777;DHT22;35673;51.482;7.436;2022-09-13T16:08:58;26.20;69.50
49777;DHT22;35673;51.482;7.436;2022-09-13T16:11:25;26.00;69.60
49777;DHT22;35673;51.482;7.436;2022-09-13T16:13:51;25.80;70.20
49777;DHT22;35673;51.482;7.436;2022-09-13T16:16:16;25.70;70.80
49777;DHT22;35673;51.482;7.436;2022-09-13T16:18:42;25.60;71.10
49777;DHT22;35673;51.482;7.436;2022-09-13T16:21:08;25.40;71.30
49777;DHT22;35673;51.482;7.436;2022-09-13T16:23:34;25.40;71.60
49777;DHT22;35673;51.482;7.436;2022-09-13T16:26:00;25.30;71.80
49777;DHT22;35673;51.482;7.436;2022-09-13T16:28:26;25.20;72.10
49777;DHT22;35673;51.482;7.436;2022-09-13T16:30:52;25.10;72.70
49777;DHT22;35673;51.482;7.436;2022-09-13T16:33:18;25.00;73.30
49777;DHT22;35673;51.482;7.436;2022-09-13T16:35:44;25.00;73.70
49777;DHT22;35673;51.482;7.436;2022-09-13T16:38:11;25.00;74.10
49777;DHT22;35673;51.482;7.436;2022-09-13T16:40:41;24.90;74.50
49777;DHT22;35673;51.482;7.436;2022-09-13T16:43:08;24.80;75.00
49777;DHT22;35673;51.482;7.436;2022-09-13T16:45:36;24.80;75.50
49777;DHT22;35673;51.482;7.436;2022-09-13T16:48:03;24.70;76.00
49777;DHT22;35673;51.482;7.436;2022-09-13T16:50:28;24.70;76.30
49777;DHT22;35673;51.482;7.436;2022-09-13T16:52:54;24.70;76.70
49777;DHT22;35673;51.482;7.436;2022-09-13T16:55:20;24.60;77.00
49777;DHT22;35673;51.482;7.436;2022-09-13T16:57:46;24.60;77.30
49777;DHT22;35673;51.482;7.436;2022-09-13T17:00:14;24.50;77.80
49777;DHT22;35673;51.482;7.436;2022-09-13T17:02:42;24.50;78.20
49777;DHT22;35673;51.482;7.436;2022-09-13T17:05:08;24.50;78.50
49777;DHT22;35673;51.482;7.436;2022-09-13T17:07:35;24.40;78.60
49777;DHT22;35673;51.482;7.436;2022-09-13T17:10:03;24.40;79.10
49777;DHT22;35673;51.482;7.436;2022-09-13T17:12:30;24.40;79.60
49777;DHT22;35673;51.482;7.436;2022-09-13T17:14:55;24.30;80.10
49777;DHT22;35673;51.482;7.436;2022-09-13T17:17:22;24.30;80.60
49777;DHT22;35673;51.482;7.436;2022-09-13T17:19:48;24.20;81.00
49777;DHT22;35673;51.482;7.436;2022-09-13T17:22:14;24.20;81.40
49777;DHT22;35673;51.482;7.436;2022-09-13T17:24:41;24.20;81.60
49777;DHT22;35673;51.482;7.436;2022-09-13T17:27:07;24.10;81.90
49777;DHT22;35673;51.482;7.436;2022-09-13T17:29:34;24.10;82.30
49777;DHT22;35673;51.482;7.436;2022-09-13T17:32:01;24.00;82.70
49777;DHT22;35673;51.482;7.436;2022-09-13T17:34:28;23.90;83.30
49777;DHT22;35673;51.482;7.436;2022-09-13T17:36:55;23.90;83.60
49777;DHT22;35673;51.482;7.436;2022-09-13T17:39:21;23.90;83.90
49777;DHT22;35673;51.482;7.436;2022-09-13T17:41:47;23.80;84.60
49777;DHT22;35673;51.482;7.436;2022-09-13T17:44:14;23.80;85.00
49777;DHT22;35673;51.482;7.436;2022-09-13T17:46:40;23.80;85.20
49777;DHT22;35673;51.482;7.436;2022-09-13T17:49:06;23.70;85.80
49777;DHT22;35673;51.482;7.436;2022-09-13T17:51:32;23.60;86.30
49777;DHT22;35673;51.482;7.436;2022-09-13T17:54:04;23.60;86.80
49777;DHT22;35673;51.482;7.436;2022-09-13T17:56:34;23.60;87.00
49777;DHT22;35673;51.482;7.436;2022-09-13T17:59:13;23.60;87.40
49777;DHT22;35673;51.482;7.436;2022-09-13T18:01:41;23.60;87.90
49777;DHT22;35673;51.482;7.436;2022-09-13T18:04:08;23.50;88.30
49777;DHT22;35673;51.482;7.436;2022-09-13T18:06:35;23.50;89.10
49777;DHT22;35673;51.482;7.436;2022-09-13T18:09:02;23.50;89.60
49777;DHT22;35673;51.482;7.436;2022-09-13T18:11:28;23.40;90.30
49777;DHT22;35673;51.482;7.436;2022-09-13T18:13:54;23.30;90.70
49777;DHT22;35673;51.482;7.436;2022-09-13T18:16:23;23.30;90.60
49777;DHT22;35673;51.482;7.436;2022-09-13T18:18:50;23.30;90.60
49777;DHT22;35673;51.482;7.436;2022-09-13T18:21:18;23.30;91.00
49777;DHT22;35673;51.482;7.436;2022-09-13T18:23:49;23.20;91.20
49777;DHT22;35673;51.482;7.436;2022-09-13T18:26:17;23.20;91.50
49777;DHT22;35673;51.482;7.436;2022-09-13T18:28:43;23.20;91.60
49777;DHT22;35673;51.482;7.436;2022-09-13T18:31:13;23.20;91.80
49777;DHT22;35673;51.482;7.436;2022-09-13T18:33:39;23.20;92.00
49777;DHT22;35673;51.482;7.436;2022-09-13T18:36:08;23.10;92.10
49777;DHT22;35673;51.482;7.436;2022-09-13T18:38:38;23.10;92.40
49777;DHT22;35673;51.482;7.436;2022-09-13T18:41:06;23.10;92.70
49777;DHT22;35673;51.482;7.436;2022-09-13T18:43:33;23.00;92.60
49777;DHT22;35673;51.482;7.436;2022-09-13T18:46:01;23.00;92.70
49777;DHT22;35673;51.482;7.436;2022-09-13T18:48:38;23.00;93.00
49777;DHT22;35673;51.482;7.436;2022-09-13T18:51:04;23.00;93.20